Weather at Prominent Hill Airport

Public forecast

Using degrees Celsius for public forecast. Weather courtesy of forecast.io.

Closest aviation weather report (METAR) to Prominent Hill Airport

Closest report is Coober Pedy Airport, 58.4 nm (108.2 km) NW. Retrieved 2021/06/23 02:00 UTC (33 minutes ago):

YCBP 230200Z AUTO 28013KT 9999 // NCD 13/06 Q1016

Closest aviation forecast (TAF) to Prominent Hill Airport

Forecast is more than 12 hours old.

Closest forecast is Woomera Airfield, 108.8 nm (201.4 km) SE. Retrieved 2021/06/22 06:00 UTC (21 hours ago):

TAF YPWR 220536Z 2206/2300 01017G27KT CAVOK FM220800 01015KT 9999 -RA SCT050 FM221400 01014KT 9999 -RA SCT010 BKN020 INTER 2212/2214 4000 RA SCT015 SCT025 TEMPO 2214/2300 3000 RA BKN010